createdAt,value
2019-06-01T00:00:11.514Z,98.38
2019-06-01T00:01:04.834Z,97.50
2019-06-01T00:02:02.936Z,97.20
2019-06-01T00:03:03.112Z,97.40
2019-06-01T00:04:03.327Z,96.79
2019-06-01T00:05:03.482Z,97.50
2019-06-01T00:06:03.672Z,98.22
2019-06-01T00:07:03.812Z,97.91
2019-06-01T00:08:04.049Z,97.91
2019-06-01T00:09:04.213Z,97.91
2019-06-01T00:10:04.387Z,98.52
2019-06-01T00:11:04.551Z,97.81
2019-06-01T00:12:04.714Z,97.40
2019-06-01T00:13:04.896Z,97.50
2019-06-01T00:14:05.070Z,97.61
2019-06-01T00:15:05.259Z,97.61
2019-06-01T00:16:05.432Z,97.55
2019-06-01T00:17:05.620Z,97.55
2019-06-01T00:18:05.842Z,98.06
2019-06-01T00:19:06.028Z,98.16
2019-06-01T00:20:06.205Z,98.98
2019-06-01T00:21:06.372Z,98.68
2019-06-01T00:22:06.570Z,98.47
2019-06-01T00:23:06.795Z,97.75
2019-06-01T00:24:06.954Z,97.70
2019-06-01T00:25:07.131Z,96.68
2019-06-01T00:26:07.291Z,96.98
2019-06-01T00:27:07.442Z,96.92
2019-06-01T00:28:07.624Z,97.33
2019-06-01T00:29:07.771Z,97.54
2019-06-01T00:30:07.938Z,97.54
2019-06-01T00:31:08.055Z,98.56
2019-06-01T00:32:08.191Z,98.86
2019-06-01T00:33:08.325Z,98.77
2019-06-01T00:34:08.517Z,98.77
2019-06-01T00:35:08.651Z,98.56
2019-06-01T00:36:08.885Z,99.68
2019-06-01T00:37:09.023Z,99.99
2019-06-01T00:38:09.180Z,99.33
2019-06-01T00:39:09.374Z,99.38
2019-06-01T00:40:09.543Z,98.97
2019-06-01T00:41:09.751Z,99.43
2019-06-01T00:42:09.914Z,99.38
2019-06-01T00:43:10.064Z,99.33
2019-06-01T00:44:10.252Z,99.38
2019-06-01T00:45:10.395Z,99.33
2019-06-01T00:46:10.591Z,99.27
2019-06-01T00:47:10.766Z,99.13
2019-06-01T00:48:10.951Z,99.33
2019-06-01T00:49:11.138Z,99.99
2019-06-01T00:50:12.306Z,99.89
2019-06-01T00:51:11.418Z,99.68
2019-06-01T00:52:11.638Z,98.66
2019-06-01T00:53:11.705Z,99.02
2019-06-01T00:54:11.856Z,98.56
2019-06-01T00:55:12.051Z,97.95
2019-06-01T00:56:12.220Z,98.46
2019-06-01T00:57:12.398Z,98.86
2019-06-01T00:58:12.595Z,99.58
2019-06-01T00:59:12.740Z,98.46
2019-06-01T01:00:13.941Z,98.15
2019-06-01T01:01:13.093Z,97.89
2019-06-01T01:02:13.281Z,97.89
2019-06-01T01:03:14.501Z,98.10
2019-06-01T01:04:13.693Z,97.99
2019-06-01T01:05:13.885Z,98.40
2019-06-01T01:06:14.096Z,99.11
2019-06-01T01:07:14.283Z,99.11
2019-06-01T01:08:14.471Z,99.32
2019-06-01T01:09:14.640Z,99.52
2019-06-01T01:10:14.861Z,99.02
2019-06-01T01:11:15.044Z,99.52
2019-06-01T01:12:15.250Z,99.32
2019-06-01T01:13:15.412Z,99.99
2019-06-01T01:14:15.604Z,99.99
2019-06-01T01:15:15.841Z,99.63
2019-06-01T01:16:16.006Z,99.52
2019-06-01T01:17:16.202Z,99.52
2019-06-01T01:18:16.395Z,99.37
2019-06-01T01:19:16.565Z,98.86
2019-06-01T01:20:16.743Z,99.16
2019-06-01T01:21:16.917Z,99.47
2019-06-01T01:22:17.115Z,99.47
2019-06-01T01:23:17.321Z,99.37
2019-06-01T01:24:17.514Z,99.73
2019-06-01T01:25:17.709Z,99.99
2019-06-01T01:26:17.937Z,99.43
2019-06-01T01:27:18.091Z,99.52
2019-06-01T01:28:18.275Z,99.68
2019-06-01T01:29:18.449Z,99.78
2019-06-01T01:30:18.601Z,99.93
2019-06-01T01:31:18.767Z,99.99
2019-06-01T01:32:18.922Z,99.47
2019-06-01T01:33:19.079Z,99.68
2019-06-01T01:34:19.275Z,99.98
2019-06-01T01:35:19.457Z,99.27
2019-06-01T01:36:19.619Z,99.78
2019-06-01T01:37:19.757Z,99.37
2019-06-01T01:38:19.942Z,99.98
2019-06-01T01:39:20.097Z,99.11
2019-06-01T01:40:20.275Z,99.68
2019-06-01T01:41:20.469Z,99.88
2019-06-01T01:42:20.638Z,99.68
2019-06-01T01:43:21.795Z,99.99
2019-06-01T01:44:20.933Z,99.99
2019-06-01T01:45:22.104Z,99.99
2019-06-01T01:46:21.256Z,99.37
2019-06-01T01:47:21.443Z,99.06
2019-06-01T01:48:21.600Z,99.68
2019-06-01T01:49:21.745Z,99.99
2019-06-01T01:50:21.912Z,99.99
2019-06-01T01:51:22.049Z,99.72
2019-06-01T01:52:22.233Z,99.57
2019-06-01T01:53:22.393Z,99.99
2019-06-01T01:54:22.554Z,99.99
2019-06-01T01:55:22.738Z,99.99
2019-06-01T01:56:22.961Z,99.99
2019-06-01T01:57:23.149Z,99.78
2019-06-01T01:58:23.296Z,99.99
2019-06-01T01:59:43.337Z,99.82
2019-06-01T02:00:23.619Z,99.52
2019-06-01T02:01:23.781Z,99.52
2019-06-01T02:02:23.949Z,99.41
2019-06-01T02:03:24.127Z,99.52
2019-06-01T02:04:24.298Z,99.46
2019-06-01T02:05:24.459Z,99.31
2019-06-01T02:06:24.620Z,99.46
2019-06-01T02:07:24.810Z,99.11
2019-06-01T02:08:25.006Z,99.31
2019-06-01T02:09:25.179Z,99.93
2019-06-01T02:10:25.362Z,99.62
2019-06-01T02:11:25.518Z,99.98
2019-06-01T02:12:25.697Z,99.72
2019-06-01T02:13:25.852Z,99.56
2019-06-01T02:14:26.000Z,99.99
2019-06-01T02:15:26.140Z,99.99
2019-06-01T02:16:26.288Z,99.93
2019-06-01T02:17:26.466Z,99.72
2019-06-01T02:18:26.621Z,99.93
2019-06-01T02:19:26.756Z,99.82
2019-06-01T02:20:26.900Z,99.93
2019-06-01T02:21:27.034Z,99.99
2019-06-01T02:22:27.228Z,99.72
2019-06-01T02:23:27.395Z,99.46
2019-06-01T02:24:27.592Z,99.77
2019-06-01T02:25:27.730Z,99.26
2019-06-01T02:26:27.904Z,99.46
2019-06-01T02:27:28.043Z,99.82
2019-06-01T02:28:28.232Z,99.56
2019-06-01T02:29:28.396Z,99.61
2019-06-01T02:30:28.557Z,99.82
2019-06-01T02:31:40.944Z,99.99
2019-06-01T02:32:30.826Z,99.99
2019-06-01T02:33:28.969Z,99.77
2019-06-01T02:34:29.146Z,99.99
2019-06-01T02:35:29.334Z,99.99
2019-06-01T02:36:29.486Z,99.99
2019-06-01T02:37:29.669Z,99.99
2019-06-01T02:38:29.889Z,99.99
2019-06-01T02:39:30.064Z,99.99
2019-06-01T02:40:30.238Z,99.99
2019-06-01T02:41:30.420Z,99.99
2019-06-01T02:42:30.605Z,99.66
2019-06-01T02:43:30.849Z,99.71
2019-06-01T02:44:31.044Z,99.51
2019-06-01T02:45:31.231Z,99.99
2019-06-01T02:46:35.611Z,99.91
2019-06-01T02:47:32.582Z,99.91
2019-06-01T02:48:31.717Z,99.61
2019-06-01T02:49:31.875Z,99.41
2019-06-01T02:50:32.048Z,99.96
2019-06-01T02:51:32.262Z,99.99
2019-06-01T02:52:32.433Z,99.99
2019-06-01T02:53:32.635Z,99.96
2019-06-01T02:54:32.842Z,99.99
2019-06-01T02:55:33.022Z,99.99
2019-06-01T02:56:33.239Z,99.99
2019-06-01T02:57:33.402Z,99.99
2019-06-01T02:58:33.571Z,99.99
2019-06-01T02:59:33.767Z,99.99
2019-06-01T03:00:33.934Z,99.99
2019-06-01T03:01:34.125Z,99.99
2019-06-01T03:02:34.277Z,99.99
2019-06-01T03:03:34.484Z,99.99
2019-06-01T03:04:34.651Z,99.99
2019-06-01T03:05:34.849Z,99.99
2019-06-01T03:06:34.994Z,99.99
2019-06-01T03:07:35.157Z,99.99
2019-06-01T03:08:35.334Z,99.99
2019-06-01T03:09:35.538Z,99.99
2019-06-01T03:10:35.734Z,99.99
2019-06-01T03:11:35.888Z,99.99
2019-06-01T03:12:36.068Z,99.98
2019-06-01T03:13:36.240Z,99.99
2019-06-01T03:14:36.413Z,99.61
2019-06-01T03:15:36.580Z,99.61
2019-06-01T03:16:39.963Z,99.99
2019-06-01T03:17:36.992Z,99.99
2019-06-01T03:18:37.193Z,99.99
2019-06-01T03:19:37.370Z,99.99
2019-06-01T03:20:37.545Z,99.99
2019-06-01T03:21:37.711Z,99.71
2019-06-01T03:22:37.887Z,99.91
2019-06-01T03:23:38.036Z,99.86
2019-06-01T03:24:38.223Z,99.99
2019-06-01T03:25:38.354Z,99.76
2019-06-01T03:26:38.491Z,99.96
2019-06-01T03:27:38.695Z,99.99
2019-06-01T03:28:38.849Z,99.61
2019-06-01T03:29:38.997Z,99.30
2019-06-01T03:30:39.173Z,99.76
2019-06-01T03:31:39.339Z,99.86
2019-06-01T03:32:39.522Z,99.99
2019-06-01T03:33:39.676Z,99.82
2019-06-01T03:34:39.825Z,99.66
2019-06-01T03:35:39.985Z,99.66
2019-06-01T03:36:40.151Z,99.99
2019-06-01T03:37:40.303Z,99.51
2019-06-01T03:38:40.459Z,99.61
2019-06-01T03:39:40.594Z,99.91
2019-06-01T03:40:40.759Z,99.71
2019-06-01T03:41:40.941Z,99.41
2019-06-01T03:42:41.118Z,99.20
2019-06-01T03:43:41.274Z,99.71
2019-06-01T03:44:41.433Z,99.41
2019-06-01T03:45:41.970Z,99.46
2019-06-01T03:46:41.747Z,99.61
2019-06-01T03:47:41.939Z,99.56
2019-06-01T03:48:42.116Z,99.61
2019-06-01T03:49:42.289Z,98.90
2019-06-01T03:50:42.494Z,98.90
2019-06-01T03:51:42.677Z,98.90
2019-06-01T03:52:42.879Z,98.90
2019-06-01T03:53:43.054Z,98.38
2019-06-01T03:54:43.289Z,98.28
2019-06-01T03:55:43.427Z,98.69
2019-06-01T03:56:43.568Z,98.99
2019-06-01T03:57:43.814Z,98.99
2019-06-01T03:58:43.857Z,99.20
2019-06-01T03:59:43.987Z,98.54
2019-06-01T04:00:45.129Z,97.56
2019-06-01T04:01:47.143Z,97.87
2019-06-01T04:02:45.577Z,98.49
2019-06-01T04:03:44.709Z,98.38
2019-06-01T04:04:44.855Z,98.69
2019-06-01T04:05:45.021Z,98.74
2019-06-01T04:07:06.398Z,98.28
2019-06-01T04:07:45.356Z,98.65
2019-06-01T04:08:45.516Z,98.74
2019-06-01T04:09:45.655Z,97.92
2019-06-01T04:10:45.834Z,98.39
2019-06-01T04:11:45.966Z,99.82
2019-06-01T04:12:46.135Z,99.47
2019-06-01T04:13:46.283Z,99.88
2019-06-01T04:14:46.486Z,99.57
2019-06-01T04:15:46.617Z,98.96
2019-06-01T04:16:46.758Z,99.57
2019-06-01T04:17:46.918Z,99.06
2019-06-01T04:18:47.088Z,98.61
2019-06-01T04:19:47.238Z,98.91
2019-06-01T04:20:47.389Z,99.11
2019-06-01T04:21:47.578Z,97.99
2019-06-01T04:22:47.787Z,97.64
2019-06-01T04:23:47.968Z,97.54
2019-06-01T04:24:48.124Z,97.24
2019-06-01T04:25:48.272Z,97.54
2019-06-01T04:26:48.427Z,97.95
2019-06-01T04:27:48.609Z,96.92
2019-06-01T04:28:48.760Z,96.11
2019-06-01T04:29:48.956Z,95.60
2019-06-01T04:30:49.113Z,96.11
2019-06-01T04:31:49.256Z,97.13
2019-06-01T04:32:50.593Z,97.54
2019-06-01T04:33:50.537Z,97.64
2019-06-01T04:34:49.691Z,98.77
2019-06-01T04:35:49.829Z,98.86
2019-06-01T04:36:49.970Z,97.54
2019-06-01T04:37:50.146Z,96.42
2019-06-01T04:38:50.303Z,95.90
2019-06-01T04:39:50.490Z,96.11
2019-06-01T04:40:50.613Z,96.01
2019-06-01T04:41:50.750Z,96.31
2019-06-01T04:42:50.936Z,97.13
2019-06-01T04:43:51.112Z,97.29
2019-06-01T04:44:51.294Z,97.80
2019-06-01T04:45:51.464Z,97.80
2019-06-01T04:46:51.615Z,97.55
2019-06-01T04:47:51.740Z,96.84
2019-06-01T04:48:51.899Z,96.84
2019-06-01T04:49:52.057Z,96.89
2019-06-01T04:50:52.198Z,96.89
2019-06-01T04:51:52.378Z,96.59
2019-06-01T04:52:52.527Z,96.38
2019-06-01T04:53:52.710Z,96.44
2019-06-01T04:54:52.905Z,95.83
2019-06-01T04:55:53.106Z,95.73
2019-06-01T04:56:53.300Z,95.93
2019-06-01T04:57:53.457Z,95.73
2019-06-01T04:58:53.680Z,96.23
2019-06-01T04:59:53.892Z,96.50
2019-06-01T05:00:54.105Z,96.44
2019-06-01T05:01:54.272Z,95.78
2019-06-01T05:03:04.891Z,94.87
2019-06-01T05:03:56.621Z,95.64
2019-06-01T05:04:54.858Z,95.94
2019-06-01T05:05:55.047Z,96.04
2019-06-01T05:06:55.237Z,95.33
2019-06-01T05:07:55.426Z,95.59
2019-06-01T05:08:55.599Z,94.88
2019-06-01T05:09:55.763Z,94.88
2019-06-01T05:10:55.946Z,95.59
2019-06-01T05:11:56.094Z,94.63
2019-06-01T05:12:56.242Z,95.49
2019-06-01T05:13:56.404Z,95.14
2019-06-01T05:14:56.582Z,95.24
2019-06-01T05:15:56.810Z,94.53
2019-06-01T05:16:56.963Z,93.71
2019-06-01T05:17:57.132Z,93.71
2019-06-01T05:18:57.314Z,94.32
2019-06-01T05:19:57.541Z,93.71
2019-06-01T05:20:57.738Z,94.12
2019-06-01T05:21:57.966Z,94.12
2019-06-01T05:22:58.162Z,93.77
2019-06-01T05:23:58.341Z,94.12
2019-06-01T05:24:58.526Z,93.41
2019-06-01T05:25:58.712Z,93.77
2019-06-01T05:26:58.926Z,93.47
2019-06-01T05:27:59.138Z,92.91
2019-06-01T05:28:59.407Z,93.22
2019-06-01T05:29:59.466Z,94.04
2019-06-01T05:30:59.678Z,93.83
2019-06-01T05:31:59.938Z,94.04
2019-06-01T05:33:00.023Z,92.61
2019-06-01T05:34:00.233Z,94.04
2019-06-01T05:35:00.429Z,93.83
2019-06-01T05:36:00.615Z,94.54
2019-06-01T05:37:00.830Z,93.48
2019-06-01T05:38:01.035Z,94.90
2019-06-01T05:39:01.204Z,94.40
2019-06-01T05:40:01.384Z,94.09
2019-06-01T05:41:01.577Z,92.67
2019-06-01T05:42:01.823Z,93.28
2019-06-01T05:43:01.892Z,93.07
2019-06-01T05:44:02.081Z,93.68
2019-06-01T05:45:02.275Z,94.09
2019-06-01T05:46:02.452Z,94.35
2019-06-01T05:47:02.671Z,93.33
2019-06-01T05:48:02.801Z,93.59
2019-06-01T05:49:02.889Z,93.95
2019-06-01T05:50:03.071Z,93.84
2019-06-01T05:51:03.237Z,92.63
2019-06-01T05:52:03.415Z,92.58
2019-06-01T05:53:03.648Z,91.97
2019-06-01T05:54:03.735Z,92.89
2019-06-01T05:55:03.935Z,92.28
2019-06-01T05:56:04.139Z,92.74
2019-06-01T05:57:04.317Z,93.09
2019-06-01T05:58:04.533Z,92.24
2019-06-01T05:59:04.715Z,92.33
2019-06-01T06:00:04.872Z,92.84
2019-06-01T06:01:05.044Z,92.54
2019-06-01T06:02:05.230Z,92.44
2019-06-01T06:03:05.458Z,92.29
2019-06-01T06:04:05.591Z,91.48
2019-06-01T06:05:05.762Z,92.09
2019-06-01T06:06:05.929Z,92.09
2019-06-01T06:07:27.098Z,92.19
2019-06-01T06:08:06.266Z,92.45
2019-06-01T06:09:06.437Z,92.35
2019-06-01T06:10:06.613Z,92.05
2019-06-01T06:11:06.762Z,91.54
2019-06-01T06:12:06.952Z,91.74
2019-06-01T06:13:07.197Z,92.10
2019-06-01T06:14:07.387Z,91.50
2019-06-01T06:15:07.559Z,89.63
2019-06-01T06:16:07.734Z,89.83
2019-06-01T06:17:07.890Z,90.24
2019-06-01T06:18:08.055Z,89.94
2019-06-01T06:19:08.256Z,90.09
2019-06-01T06:20:08.466Z,89.39
2019-06-01T06:21:08.646Z,89.45
2019-06-01T06:22:08.803Z,89.34
2019-06-01T06:23:08.973Z,90.16
2019-06-01T06:24:09.169Z,89.95
2019-06-01T06:25:09.347Z,89.70
2019-06-01T06:26:09.548Z,89.70
2019-06-01T06:27:09.726Z,89.20
2019-06-01T06:28:09.885Z,90.17
2019-06-01T06:29:10.075Z,89.40
2019-06-01T06:30:10.237Z,89.87
2019-06-01T06:31:10.415Z,88.65
2019-06-01T06:32:10.596Z,88.35
2019-06-01T06:33:10.776Z,88.61
2019-06-01T06:34:10.987Z,88.21
2019-06-01T06:35:11.189Z,88.47
2019-06-01T06:36:11.352Z,88.17
2019-06-01T06:37:11.517Z,88.37
2019-06-01T06:38:11.855Z,87.36
2019-06-01T06:39:11.886Z,87.36
2019-06-01T06:40:12.104Z,87.15
2019-06-01T06:41:12.290Z,87.36
2019-06-01T06:42:12.491Z,87.26
2019-06-01T06:43:22.329Z,88.26
2019-06-01T06:44:14.819Z,87.36
2019-06-01T06:45:13.034Z,87.56
2019-06-01T06:46:13.112Z,86.65
2019-06-01T06:47:13.296Z,87.05
2019-06-01T06:48:14.863Z,85.94
2019-06-01T06:49:14.919Z,85.60
2019-06-01T06:50:14.919Z,86.30
2019-06-01T06:51:15.192Z,87.52
2019-06-01T06:52:15.384Z,84.89
2019-06-01T06:53:25.291Z,87.52
2019-06-01T06:54:17.606Z,86.81
2019-06-01T06:55:15.716Z,85.70
2019-06-01T06:56:15.699Z,86.27
2019-06-01T06:57:15.985Z,86.57
2019-06-01T06:58:15.967Z,85.66
2019-06-01T06:59:16.195Z,84.25
2019-06-01T07:00:16.387Z,84.95
2019-06-01T07:01:16.957Z,85.31
2019-06-01T07:02:16.743Z,85.92
2019-06-01T07:03:16.884Z,85.52
2019-06-01T07:04:17.058Z,85.62
2019-06-01T07:05:17.445Z,84.91
2019-06-01T07:06:17.337Z,85.02
2019-06-01T07:07:17.613Z,85.68
2019-06-01T07:08:19.720Z,82.35
2019-06-01T07:09:17.894Z,82.56
2019-06-01T07:10:18.016Z,82.42
2019-06-01T07:11:19.061Z,84.27
2019-06-01T07:12:19.133Z,84.33
2019-06-01T07:13:19.188Z,82.01
2019-06-01T07:14:19.319Z,82.51
2019-06-01T07:15:19.661Z,82.21
2019-06-01T07:16:19.303Z,82.28
2019-06-01T07:17:19.492Z,80.06
2019-06-01T07:18:21.434Z,80.06
2019-06-01T07:19:19.559Z,78.81
2019-06-01T07:20:21.471Z,79.62
2019-06-01T07:21:19.784Z,79.58
2019-06-01T07:22:21.720Z,80.69
2019-06-01T07:23:23.882Z,78.78
2019-06-01T07:24:21.747Z,79.08
2019-06-01T07:25:21.810Z,79.79
2019-06-01T07:26:21.897Z,77.03
